sensor_id;sensor_type;location;lat;lon;timestamp;pressure;altitude;pressure_sealevel;temperature;humidity
71105;BME280;58760;48.716;8.962;2023-02-28T00:01:11;97070.22;;;-2.38;60.99
71105;BME280;58760;48.716;8.962;2023-02-28T00:03:37;97073.97;;;-2.43;61.12
71105;BME280;58760;48.716;8.962;2023-02-28T00:06:04;97068.25;;;-2.50;61.42
71105;BME280;58760;48.716;8.962;2023-02-28T00:08:30;97075.13;;;-2.49;61.30
71105;BME280;58760;48.716;8.962;2023-02-28T00:10:55;97075.53;;;-2.56;61.79
71105;BME280;58760;48.716;8.962;2023-02-28T00:13:21;97073.59;;;-2.53;61.76
71105;BME280;58760;48.716;8.962;2023-02-28T00:15:46;97066.22;;;-2.60;62.26
71105;BME280;58760;48.716;8.962;2023-02-28T00:18:12;97070.75;;;-2.64;62.24
71105;BME280;58760;48.716;8.962;2023-02-28T00:20:38;97073.41;;;-2.66;62.54
71105;BME280;58760;48.716;8.962;2023-02-28T00:23:04;97074.25;;;-2.65;62.67
71105;BME280;58760;48.716;8.962;2023-02-28T00:25:29;97074.78;;;-2.58;62.69
71105;BME280;58760;48.716;8.962;2023-02-28T00:27:55;97077.00;;;-2.68;62.87
71105;BME280;58760;48.716;8.962;2023-02-28T00:30:22;97070.44;;;-2.75;63.22
71105;BME280;58760;48.716;8.962;2023-02-28T00:32:49;97071.72;;;-2.67;63.16
71105;BME280;58760;48.716;8.962;2023-02-28T00:35:16;97075.94;;;-2.64;63.03
71105;BME280;58760;48.716;8.962;2023-02-28T00:37:41;97076.09;;;-2.67;63.11
71105;BME280;58760;48.716;8.962;2023-02-28T00:40:10;97072.88;;;-2.72;63.50
71105;BME280;58760;48.716;8.962;2023-02-28T00:42:37;97077.47;;;-2.77;63.48
71105;BME280;58760;48.716;8.962;2023-02-28T00:45:03;97069.84;;;-2.80;63.68
71105;BME280;58760;48.716;8.962;2023-02-28T00:47:29;97067.09;;;-2.77;63.75
71105;BME280;58760;48.716;8.962;2023-02-28T00:49:55;97067.84;;;-2.75;63.78
71105;BME280;58760;48.716;8.962;2023-02-28T00:52:20;97072.19;;;-2.76;63.70
71105;BME280;58760;48.716;8.962;2023-02-28T00:54:46;97064.88;;;-2.85;63.88
71105;BME280;58760;48.716;8.962;2023-02-28T00:57:11;97069.38;;;-2.88;64.01
71105;BME280;58760;48.716;8.962;2023-02-28T00:59:37;97070.28;;;-2.89;64.07
71105;BME280;58760;48.716;8.962;2023-02-28T01:02:02;97069.34;;;-2.87;64.41
71105;BME280;58760;48.716;8.962;2023-02-28T01:04:28;97058.78;;;-2.84;64.34
71105;BME280;58760;48.716;8.962;2023-02-28T01:06:53;97061.53;;;-2.87;64.52
71105;BME280;58760;48.716;8.962;2023-02-28T01:09:19;97073.84;;;-2.90;64.65
71105;BME280;58760;48.716;8.962;2023-02-28T01:11:44;97066.63;;;-2.85;64.96
71105;BME280;58760;48.716;8.962;2023-02-28T01:14:15;97063.50;;;-2.92;65.38
71105;BME280;58760;48.716;8.962;2023-02-28T01:16:40;97065.88;;;-2.87;65.18
71105;BME280;58760;48.716;8.962;2023-02-28T01:19:06;97063.59;;;-2.93;65.35
71105;BME280;58760;48.716;8.962;2023-02-28T01:21:31;97059.47;;;-2.97;65.53
71105;BME280;58760;48.716;8.962;2023-02-28T01:23:57;97051.75;;;-2.99;66.00
71105;BME280;58760;48.716;8.962;2023-02-28T01:26:23;97055.19;;;-2.98;66.25
71105;BME280;58760;48.716;8.962;2023-02-28T01:28:49;97060.69;;;-3.04;66.32
71105;BME280;58760;48.716;8.962;2023-02-28T01:31:16;97055.19;;;-2.98;66.10
71105;BME280;58760;48.716;8.962;2023-02-28T01:33:41;97054.13;;;-2.94;66.41
71105;BME280;58760;48.716;8.962;2023-02-28T01:36:11;97056.34;;;-3.04;66.80
71105;BME280;58760;48.716;8.962;2023-02-28T01:38:37;97063.44;;;-3.07;67.25
71105;BME280;58760;48.716;8.962;2023-02-28T01:41:03;97057.03;;;-3.00;66.83
71105;BME280;58760;48.716;8.962;2023-02-28T01:46:14;97053.69;;;-3.02;67.24
71105;BME280;58760;48.716;8.962;2023-02-28T01:48:42;97047.19;;;-3.11;67.57
71105;BME280;58760;48.716;8.962;2023-02-28T01:51:15;97049.03;;;-3.13;68.13
71105;BME280;58760;48.716;8.962;2023-02-28T01:53:49;97044.97;;;-3.01;68.05
71105;BME280;58760;48.716;8.962;2023-02-28T01:56:20;97051.16;;;-3.04;68.07
71105;BME280;58760;48.716;8.962;2023-02-28T01:58:49;97046.28;;;-3.10;68.27
71105;BME280;58760;48.716;8.962;2023-02-28T02:01:16;97037.28;;;-3.03;68.48
71105;BME280;58760;48.716;8.962;2023-02-28T02:03:48;97039.94;;;-3.04;68.48
71105;BME280;58760;48.716;8.962;2023-02-28T02:06:20;97032.84;;;-3.01;68.76
71105;BME280;58760;48.716;8.962;2023-02-28T02:08:46;97037.81;;;-3.13;69.25
71105;BME280;58760;48.716;8.962;2023-02-28T02:11:12;97028.88;;;-3.08;69.30
71105;BME280;58760;48.716;8.962;2023-02-28T02:25:23;97020.34;;;-3.10;70.24
71105;BME280;58760;48.716;8.962;2023-02-28T02:27:59;97024.16;;;-3.17;70.33
71105;BME280;58760;48.716;8.962;2023-02-28T02:36:39;97015.75;;;-3.05;70.72
71105;BME280;58760;48.716;8.962;2023-02-28T02:39:19;97014.88;;;-3.05;71.05
71105;BME280;58760;48.716;8.962;2023-02-28T02:41:51;97016.69;;;-3.06;71.06
71105;BME280;58760;48.716;8.962;2023-02-28T02:44:27;97022.03;;;-3.09;71.23
71105;BME280;58760;48.716;8.962;2023-02-28T02:46:59;97021.03;;;-3.06;71.57
71105;BME280;58760;48.716;8.962;2023-02-28T02:49:31;97024.38;;;-3.04;71.53
71105;BME280;58760;48.716;8.962;2023-02-28T02:52:02;97022.69;;;-3.05;71.37
71105;BME280;58760;48.716;8.962;2023-02-28T02:54:31;97021.88;;;-3.06;71.79
71105;BME280;58760;48.716;8.962;2023-02-28T02:57:03;97025.22;;;-3.04;71.87
71105;BME280;58760;48.716;8.962;2023-02-28T02:59:30;97030.19;;;-2.99;72.08
71105;BME280;58760;48.716;8.962;2023-02-28T03:01:59;97030.94;;;-2.97;71.88
71105;BME280;58760;48.716;8.962;2023-02-28T03:04:28;97022.41;;;-2.99;72.05
71105;BME280;58760;48.716;8.962;2023-02-28T03:06:55;97024.16;;;-3.00;72.13
71105;BME280;58760;48.716;8.962;2023-02-28T03:09:25;97031.09;;;-3.00;72.31
71105;BME280;58760;48.716;8.962;2023-02-28T03:11:53;97034.59;;;-3.01;72.57
71105;BME280;58760;48.716;8.962;2023-02-28T03:19:43;97031.28;;;-2.88;72.28
71105;BME280;58760;48.716;8.962;2023-02-28T03:24:47;97026.78;;;-2.84;72.68
71105;BME280;58760;48.716;8.962;2023-02-28T03:27:26;97027.78;;;-2.87;72.84
71105;BME280;58760;48.716;8.962;2023-02-28T03:30:01;97024.78;;;-2.79;72.66
71105;BME280;58760;48.716;8.962;2023-02-28T03:32:35;97027.78;;;-2.87;72.82
71105;BME280;58760;48.716;8.962;2023-02-28T03:35:15;97022.34;;;-2.82;73.15
71105;BME280;58760;48.716;8.962;2023-02-28T03:37:50;97020.16;;;-2.57;73.19
71105;BME280;58760;48.716;8.962;2023-02-28T03:40:21;97014.13;;;-2.57;72.57
71105;BME280;58760;48.716;8.962;2023-02-28T03:42:50;97020.78;;;-2.69;72.76
71105;BME280;58760;48.716;8.962;2023-02-28T03:45:23;97022.63;;;-2.71;73.21
71105;BME280;58760;48.716;8.962;2023-02-28T03:48:03;97014.84;;;-2.71;73.22
71105;BME280;58760;48.716;8.962;2023-02-28T03:50:41;97012.09;;;-2.68;73.76
71105;BME280;58760;48.716;8.962;2023-02-28T03:53:25;97016.00;;;-2.77;73.90
71105;BME280;58760;48.716;8.962;2023-02-28T03:56:07;97024.50;;;-2.57;73.51
71105;BME280;58760;48.716;8.962;2023-02-28T04:01:20;97027.97;;;-2.57;73.42
71105;BME280;58760;48.716;8.962;2023-02-28T04:03:49;97023.34;;;-2.52;73.42
71105;BME280;58760;48.716;8.962;2023-02-28T04:06:18;97019.84;;;-2.51;73.16
71105;BME280;58760;48.716;8.962;2023-02-28T04:08:44;97025.78;;;-2.49;73.52
71105;BME280;58760;48.716;8.962;2023-02-28T04:13:38;97026.53;;;-2.47;73.97
71105;BME280;58760;48.716;8.962;2023-02-28T04:16:06;97026.69;;;-2.50;73.92
71105;BME280;58760;48.716;8.962;2023-02-28T04:18:37;97013.13;;;-2.55;73.82
71105;BME280;58760;48.716;8.962;2023-02-28T04:21:04;97020.16;;;-2.57;74.37
71105;BME280;58760;48.716;8.962;2023-02-28T04:23:30;97026.84;;;-2.53;74.24
71105;BME280;58760;48.716;8.962;2023-02-28T04:25:55;97022.44;;;-2.51;74.56
71105;BME280;58760;48.716;8.962;2023-02-28T04:28:21;97030.06;;;-2.48;74.79
71105;BME280;58760;48.716;8.962;2023-02-28T04:30:46;97025.03;;;-2.51;74.54
71105;BME280;58760;48.716;8.962;2023-02-28T04:33:12;97020.16;;;-2.57;74.63
71105;BME280;58760;48.716;8.962;2023-02-28T04:35:37;97027.47;;;-2.48;75.21
71105;BME280;58760;48.716;8.962;2023-02-28T04:38:02;97028.22;;;-2.46;75.11
71105;BME280;58760;48.716;8.962;2023-02-28T04:40:28;97024.25;;;-2.53;74.93
71105;BME280;58760;48.716;8.962;2023-02-28T04:42:53;97017.91;;;-2.47;75.31
71105;BME280;58760;48.716;8.962;2023-02-28T04:45:19;97015.84;;;-2.41;74.89
71105;BME280;58760;48.716;8.962;2023-02-28T04:47:44;97014.13;;;-2.42;75.03
71105;BME280;58760;48.716;8.962;2023-02-28T04:50:10;97019.34;;;-2.42;74.91
71105;BME280;58760;48.716;8.962;2023-02-28T04:52:35;97016.81;;;-2.43;74.84
71105;BME280;58760;48.716;8.962;2023-02-28T04:55:01;97018.31;;;-2.55;75.33
71105;BME280;58760;48.716;8.962;2023-02-28T04:57:27;97019.34;;;-2.42;74.63
71105;BME280;58760;48.716;8.962;2023-02-28T04:59:52;97012.56;;;-2.44;75.11
71105;BME280;58760;48.716;8.962;2023-02-28T05:02:18;97019.34;;;-2.42;74.99
71105;BME280;58760;48.716;8.962;2023-02-28T05:04:43;97018.00;;;-2.33;74.89
71105;BME280;58760;48.716;8.962;2023-02-28T05:07:08;97010.97;;;-2.31;74.63
71105;BME280;58760;48.716;8.962;2023-02-28T05:09:35;97016.25;;;-2.33;74.51
71105;BME280;58760;48.716;8.962;2023-02-28T05:12:00;97015.75;;;-2.24;74.31
71105;BME280;58760;48.716;8.962;2023-02-28T05:14:25;97020.88;;;-2.22;74.28
71105;BME280;58760;48.716;8.962;2023-02-28T05:16:51;97030.59;;;-2.26;74.22
71105;BME280;58760;48.716;8.962;2023-02-28T05:19:16;97021.88;;;-2.25;74.56
71105;BME280;58760;48.716;8.962;2023-02-28T05:21:51;97028.16;;;-2.44;75.23
71105;BME280;58760;48.716;8.962;2023-02-28T05:24:17;97030.59;;;-2.26;74.91
71105;BME280;58760;48.716;8.962;2023-02-28T05:26:48;97033.75;;;-2.21;75.07
71105;BME280;58760;48.716;8.962;2023-02-28T05:29:14;97032.09;;;-2.22;74.91
71105;BME280;58760;48.716;8.962;2023-02-28T05:31:39;97035.84;;;-2.27;75.05
71105;BME280;58760;48.716;8.962;2023-02-28T05:34:05;97039.72;;;-2.19;75.24
71105;BME280;58760;48.716;8.962;2023-02-28T05:36:30;97031.44;;;-2.09;74.70
71105;BME280;58760;48.716;8.962;2023-02-28T05:38:56;97032.78;;;-2.18;74.85
71105;BME280;58760;48.716;8.962;2023-02-28T05:41:21;97026.75;;;-2.19;74.99
71105;BME280;58760;48.716;8.962;2023-02-28T05:43:48;97041.16;;;-2.29;75.26
71105;BME280;58760;48.716;8.962;2023-02-28T05:46:14;97032.22;;;-2.40;75.87
71105;BME280;58760;48.716;8.962;2023-02-28T05:48:41;97036.63;;;-2.25;76.28
71105;BME280;58760;48.716;8.962;2023-02-28T05:51:07;97032.63;;;-2.15;75.58
71105;BME280;58760;48.716;8.962;2023-02-28T05:53:34;97028.22;;;-2.15;75.36
71105;BME280;58760;48.716;8.962;2023-02-28T05:56:00;97034.53;;;-2.19;75.47
71105;BME280;58760;48.716;8.962;2023-02-28T05:58:26;97029.75;;;-2.11;75.56
71105;BME280;58760;48.716;8.962;2023-02-28T06:00:56;97032.69;;;-2.17;75.94
71105;BME280;58760;48.716;8.962;2023-02-28T06:03:21;97035.44;;;-2.04;75.60
71105;BME280;58760;48.716;8.962;2023-02-28T06:05:47;97028.50;;;-2.03;75.85
71105;BME280;58760;48.716;8.962;2023-02-28T06:08:12;97028.31;;;-2.00;75.80
71105;BME280;58760;48.716;8.962;2023-02-28T06:10:38;97030.84;;;-1.99;76.19
71105;BME280;58760;48.716;8.962;2023-02-28T06:13:04;97044.84;;;-2.01;75.65
71105;BME280;58760;48.716;8.962;2023-02-28T06:15:29;97031.25;;;-1.91;76.05
71105;BME280;58760;48.716;8.962;2023-02-28T06:17:55;97040.63;;;-1.88;76.42
71105;BME280;58760;48.716;8.962;2023-02-28T06:20:22;97040.00;;;-1.92;76.64
71105;BME280;58760;48.716;8.962;2023-02-28T06:22:48;97047.88;;;-1.93;76.42
71105;BME280;58760;48.716;8.962;2023-02-28T06:25:15;97048.38;;;-2.02;76.55
71105;BME280;58760;48.716;8.962;2023-02-28T06:27:40;97050.41;;;-1.92;76.78
71105;BME280;58760;48.716;8.962;2023-02-28T06:30:06;97055.31;;;-1.87;77.36
71105;BME280;58760;48.716;8.962;2023-02-28T06:32:32;97056.75;;;-1.97;77.15
71105;BME280;58760;48.716;8.962;2023-02-28T06:34:57;97062.28;;;-2.03;77.04
71105;BME280;58760;48.716;8.962;2023-02-28T06:37:23;97063.81;;;-1.84;77.84
71105;BME280;58760;48.716;8.962;2023-02-28T06:39:51;97069.84;;;-1.83;77.45
71105;BME280;58760;48.716;8.962;2023-02-28T06:42:17;97075.72;;;-1.95;77.06
71105;BME280;58760;48.716;8.962;2023-02-28T06:44:42;97062.56;;;-1.92;77.74
71105;BME280;58760;48.716;8.962;2023-02-28T06:47:08;97067.50;;;-1.88;77.44
71105;BME280;58760;48.716;8.962;2023-02-28T06:49:35;97070.09;;;-1.88;77.46
71105;BME280;58760;48.716;8.962;2023-02-28T06:52:01;97065.16;;;-1.92;77.25
71105;BME280;58760;48.716;8.962;2023-02-28T06:54:26;97062.63;;;-1.94;77.95
71105;BME280;58760;48.716;8.962;2023-02-28T06:56:52;97068.84;;;-1.96;77.35
71105;BME280;58760;48.716;8.962;2023-02-28T06:59:19;97074.72;;;-1.77;77.80
71105;BME280;58760;48.716;8.962;2023-02-28T07:01:45;97079.41;;;-1.84;77.04
71105;BME280;58760;48.716;8.962;2023-02-28T07:04:11;97075.22;;;-1.86;77.20
71105;BME280;58760;48.716;8.962;2023-02-28T07:06:38;97072.78;;;-1.89;76.78
71105;BME280;58760;48.716;8.962;2023-02-28T07:09:04;97076.88;;;-1.85;76.50
71105;BME280;58760;48.716;8.962;2023-02-28T07:11:29;97073.13;;;-1.80;76.64
71105;BME280;58760;48.716;8.962;2023-02-28T07:13:55;97079.75;;;-1.74;76.48
71105;BME280;58760;48.716;8.962;2023-02-28T07:16:24;97083.44;;;-1.78;76.19
71105;BME280;58760;48.716;8.962;2023-02-28T07:18:52;97087.03;;;-1.65;76.57
71105;BME280;58760;48.716;8.962;2023-02-28T07:21:18;97088.13;;;-1.53;75.79
71105;BME280;58760;48.716;8.962;2023-02-28T07:23:43;97082.94;;;-1.53;75.20
71105;BME280;58760;48.716;8.962;2023-02-28T07:26:13;97090.66;;;-1.68;75.05
71105;BME280;58760;48.716;8.962;2023-02-28T07:28:40;97089.28;;;-1.59;75.24
71105;BME280;58760;48.716;8.962;2023-02-28T07:31:08;97089.03;;;-1.54;75.41
71105;BME280;58760;48.716;8.962;2023-02-28T07:33:33;97092.50;;;-1.54;74.24
71105;BME280;58760;48.716;8.962;2023-02-28T07:36:03;97092.72;;;-1.59;74.87
71105;BME280;58760;48.716;8.962;2023-02-28T07:38:29;97094.19;;;-1.53;74.26
71105;BME280;58760;48.716;8.962;2023-02-28T07:40:55;97084.16;;;-1.45;73.90
71105;BME280;58760;48.716;8.962;2023-02-28T07:43:20;97092.31;;;-1.51;74.02
71105;BME280;58760;48.716;8.962;2023-02-28T07:45:45;97084.13;;;-1.29;73.56
71105;BME280;58760;48.716;8.962;2023-02-28T07:48:11;97083.91;;;-1.40;73.19
71105;BME280;58760;48.716;8.962;2023-02-28T07:50:36;97091.09;;;-1.30;73.24
71105;BME280;58760;48.716;8.962;2023-02-28T07:53:02;97081.28;;;-1.25;73.76
71105;BME280;58760;48.716;8.962;2023-02-28T07:55:27;97083.16;;;-1.13;72.55
71105;BME280;58760;48.716;8.962;2023-02-28T07:57:52;97085.38;;;-1.21;72.65
71105;BME280;58760;48.716;8.962;2023-02-28T08:00:18;97088.72;;;-1.19;72.62
71105;BME280;58760;48.716;8.962;2023-02-28T08:02:44;97094.78;;;-1.18;71.74
71105;BME280;58760;48.716;8.962;2023-02-28T08:05:09;97098.41;;;-1.21;71.93
71105;BME280;58760;48.716;8.962;2023-02-28T08:07:35;97108.41;;;-1.29;72.17
71105;BME280;58760;48.716;8.962;2023-02-28T08:10:00;97108.06;;;-1.23;71.89
71105;BME280;58760;48.716;8.962;2023-02-28T08:12:26;97110.91;;;-1.12;71.16
71105;BME280;58760;48.716;8.962;2023-02-28T08:14:51;97110.38;;;-1.02;70.67
71105;BME280;58760;48.716;8.962;2023-02-28T08:17:17;97109.34;;;-1.00;71.44
71105;BME280;58760;48.716;8.962;2023-02-28T08:19:45;97108.16;;;-0.94;70.75
71105;BME280;58760;48.716;8.962;2023-02-28T08:22:11;97114.16;;;-0.78;69.91
71105;BME280;58760;48.716;8.962;2023-02-28T08:24:36;97106.66;;;-0.98;69.58
71105;BME280;58760;48.716;8.962;2023-02-28T08:27:02;97104.78;;;-0.96;69.44
71105;BME280;58760;48.716;8.962;2023-02-28T08:29:27;97094.88;;;-0.90;69.75
71105;BME280;58760;48.716;8.962;2023-02-28T08:31:52;97103.28;;;-1.00;69.69
71105;BME280;58760;48.716;8.962;2023-02-28T08:34:17;97105.09;;;-1.01;70.46
71105;BME280;58760;48.716;8.962;2023-02-28T08:36:43;97104.44;;;-0.90;70.60
71105;BME280;58760;48.716;8.962;2023-02-28T08:39:10;97108.59;;;-0.72;69.85
71105;BME280;58760;48.716;8.962;2023-02-28T08:41:36;97102.00;;;-0.64;68.61
71105;BME280;58760;48.716;8.962;2023-02-28T08:44:01;97111.56;;;-0.64;68.39
71105;BME280;58760;48.716;8.962;2023-02-28T08:46:27;97103.03;;;-0.52;68.15
71105;BME280;58760;48.716;8.962;2023-02-28T08:48:54;97097.19;;;-0.41;67.16
71105;BME280;58760;48.716;8.962;2023-02-28T08:51:20;97111.16;;;-0.42;68.08
71105;BME280;58760;48.716;8.962;2023-02-28T08:53:57;97115.25;;;-0.52;68.14
71105;BME280;58760;48.716;8.962;2023-02-28T08:56:23;97122.59;;;-0.59;66.93
71105;BME280;58760;48.716;8.962;2023-02-28T08:58:49;97113.38;;;-0.50;67.43
71105;BME280;58760;48.716;8.962;2023-02-28T09:01:19;97124.56;;;-0.34;66.37
71105;BME280;58760;48.716;8.962;2023-02-28T09:03:47;97121.13;;;-0.35;66.37
71105;BME280;58760;48.716;8.962;2023-02-28T09:06:14;97123.34;;;-0.43;66.58
71105;BME280;58760;48.716;8.962;2023-02-28T09:08:40;97134.16;;;-0.49;66.51
71105;BME280;58760;48.716;8.962;2023-02-28T09:11:06;97128.41;;;-0.70;66.51
71105;BME280;58760;48.716;8.962;2023-02-28T09:13:33;97130.44;;;-0.75;66.63
71105;BME280;58760;48.716;8.962;2023-02-28T09:16:00;97131.53;;;-0.49;66.02
71105;BME280;58760;48.716;8.962;2023-02-28T09:18:26;97133.47;;;-0.38;65.86
71105;BME280;58760;48.716;8.962;2023-02-28T09:20:52;97128.38;;;-0.26;65.27
71105;BME280;58760;48.716;8.962;2023-02-28T09:23:18;97138.50;;;-0.35;66.09
71105;BME280;58760;48.716;8.962;2023-02-28T09:25:51;97134.06;;;-0.19;65.24
71105;BME280;58760;48.716;8.962;2023-02-28T09:28:18;97131.19;;;-0.15;65.07
71105;BME280;58760;48.716;8.962;2023-02-28T09:30:49;97126.91;;;-0.02;65.07
71105;BME280;58760;48.716;8.962;2023-02-28T09:33:15;97131.28;;;-0.02;64.12
71105;BME280;58760;48.716;8.962;2023-02-28T09:35:41;97131.38;;;-0.18;64.41
71105;BME280;58760;48.716;8.962;2023-02-28T09:38:08;97129.78;;;-0.20;64.83
71105;BME280;58760;48.716;8.962;2023-02-28T09:40:50;97135.28;;;-0.25;64.78
71105;BME280;58760;48.716;8.962;2023-02-28T09:43:18;97127.38;;;0.05;64.21
71105;BME280;58760;48.716;8.962;2023-02-28T09:46:37;97125.88;;;0.01;64.49
71105;BME280;58760;48.716;8.962;2023-02-28T09:49:10;97138.47;;;0.09;64.44
71105;BME280;58760;48.716;8.962;2023-02-28T09:54:18;97142.63;;;0.11;64.10
71105;BME280;58760;48.716;8.962;2023-02-28T09:57:07;97139.25;;;0.23;63.70
71105;BME280;58760;48.716;8.962;2023-02-28T10:02:51;97139.00;;;0.28;63.45
71105;BME280;58760;48.716;8.962;2023-02-28T10:05:22;97148.22;;;0.33;62.93
71105;BME280;58760;48.716;8.962;2023-02-28T10:08:11;97143.75;;;0.35;62.81
71105;BME280;58760;48.716;8.962;2023-02-28T10:10:42;97147.28;;;0.48;62.26
71105;BME280;58760;48.716;8.962;2023-02-28T10:13:20;97143.69;;;0.49;62.78
71105;BME280;58760;48.716;8.962;2023-02-28T10:15:51;97148.47;;;0.57;62.17
71105;BME280;58760;48.716;8.962;2023-02-28T10:18:22;97152.69;;;0.72;61.93
71105;BME280;58760;48.716;8.962;2023-02-28T10:20:50;97160.28;;;0.63;61.75
71105;BME280;58760;48.716;8.962;2023-02-28T10:23:20;97163.13;;;0.86;61.81
71105;BME280;58760;48.716;8.962;2023-02-28T10:25:59;97164.44;;;0.79;61.68
71105;BME280;58760;48.716;8.962;2023-02-28T10:28:25;97158.59;;;1.02;61.62
71105;BME280;58760;48.716;8.962;2023-02-28T10:30:53;97156.56;;;1.20;60.42
71105;BME280;58760;48.716;8.962;2023-02-28T10:33:21;97159.25;;;1.19;60.82
71105;BME280;58760;48.716;8.962;2023-02-28T10:35:47;97153.00;;;1.34;60.25
71105;BME280;58760;48.716;8.962;2023-02-28T10:38:17;97152.03;;;1.49;60.17
71105;BME280;58760;48.716;8.962;2023-02-28T10:40:43;97145.13;;;1.73;59.41
71105;BME280;58760;48.716;8.962;2023-02-28T10:45:54;97160.72;;;2.13;57.00
71105;BME280;58760;48.716;8.962;2023-02-28T11:01:37;97148.72;;;1.97;57.32
71105;BME280;58760;48.716;8.962;2023-02-28T11:04:16;97151.13;;;2.00;57.10
71105;BME280;58760;48.716;8.962;2023-02-28T11:06:43;97149.41;;;2.12;55.98
71105;BME280;58760;48.716;8.962;2023-02-28T11:09:28;97149.81;;;2.31;56.35
71105;BME280;58760;48.716;8.962;2023-02-28T11:11:56;97141.53;;;2.50;55.97
71105;BME280;58760;48.716;8.962;2023-02-28T11:14:26;97148.94;;;2.56;54.87
71105;BME280;58760;48.716;8.962;2023-02-28T11:16:53;97152.38;;;2.69;54.99
71105;BME280;58760;48.716;8.962;2023-02-28T11:19:25;97146.09;;;2.59;56.22
71105;BME280;58760;48.716;8.962;2023-02-28T11:21:57;97156.88;;;2.67;54.81
71105;BME280;58760;48.716;8.962;2023-02-28T11:24:41;97153.44;;;2.67;55.33
71105;BME280;58760;48.716;8.962;2023-02-28T11:29:56;97152.94;;;2.85;54.53
71105;BME280;58760;48.716;8.962;2023-02-28T11:32:26;97155.50;;;2.74;53.82
71105;BME280;58760;48.716;8.962;2023-02-28T11:35:14;97158.28;;;2.47;55.00
71105;BME280;58760;48.716;8.962;2023-02-28T11:37:42;97156.81;;;2.80;54.86
71105;BME280;58760;48.716;8.962;2023-02-28T11:40:18;97147.25;;;2.91;55.42
71105;BME280;58760;48.716;8.962;2023-02-28T11:45:24;97145.59;;;3.38;53.11
71105;BME280;58760;48.716;8.962;2023-02-28T11:50:40;97145.66;;;3.60;52.07
71105;BME280;58760;48.716;8.962;2023-02-28T11:53:42;97131.94;;;3.67;52.38
71105;BME280;58760;48.716;8.962;2023-02-28T12:01:26;97133.53;;;3.81;51.59
71105;BME280;58760;48.716;8.962;2023-02-28T12:04:22;97127.53;;;3.68;51.68
71105;BME280;58760;48.716;8.962;2023-02-28T12:06:59;97120.75;;;5.19;48.77
71105;BME280;58760;48.716;8.962;2023-02-28T12:09:43;97116.84;;;5.35;48.49
71105;BME280;58760;48.716;8.962;2023-02-28T12:12:27;97120.38;;;6.58;45.68
71105;BME280;58760;48.716;8.962;2023-02-28T12:15:16;97115.78;;;6.20;46.42
71105;BME280;58760;48.716;8.962;2023-02-28T12:20:40;97104.84;;;9.09;39.46
71105;BME280;58760;48.716;8.962;2023-02-28T12:23:47;97101.03;;;10.52;37.60
71105;BME280;58760;48.716;8.962;2023-02-28T12:26:38;97097.84;;;10.48;37.69
71105;BME280;58760;48.716;8.962;2023-02-28T12:29:22;97092.78;;;11.05;37.90
71105;BME280;58760;48.716;8.962;2023-02-28T12:31:53;97087.34;;;11.38;36.80
71105;BME280;58760;48.716;8.962;2023-02-28T12:34:23;97079.22;;;12.29;34.87
71105;BME280;58760;48.716;8.962;2023-02-28T12:36:53;97075.41;;;12.07;35.27
71105;BME280;58760;48.716;8.962;2023-02-28T12:39:26;97083.69;;;13.90;32.29
71105;BME280;58760;48.716;8.962;2023-02-28T12:42:00;97071.78;;;13.10;32.05
71105;BME280;58760;48.716;8.962;2023-02-28T12:44:34;97069.31;;;13.00;31.94
71105;BME280;58760;48.716;8.962;2023-02-28T12:47:05;97079.00;;;12.46;32.59
71105;BME280;58760;48.716;8.962;2023-02-28T12:49:40;97071.25;;;10.74;34.19
71105;BME280;58760;48.716;8.962;2023-02-28T12:52:07;97076.22;;;9.66;36.22
71105;BME280;58760;48.716;8.962;2023-02-28T12:54:56;97075.88;;;10.04;36.32
71105;BME280;58760;48.716;8.962;2023-02-28T12:57:38;97073.88;;;10.06;37.01
71105;BME280;58760;48.716;8.962;2023-02-28T13:00:13;97070.34;;;10.99;34.75
71105;BME280;58760;48.716;8.962;2023-02-28T13:10:46;97045.88;;;14.39;29.96
71105;BME280;58760;48.716;8.962;2023-02-28T13:13:18;97044.66;;;14.27;30.02
71105;BME280;58760;48.716;8.962;2023-02-28T13:16:05;97051.59;;;14.36;29.67
71105;BME280;58760;48.716;8.962;2023-02-28T13:18:35;97047.75;;;13.41;31.38
71105;BME280;58760;48.716;8.962;2023-02-28T13:21:03;97047.81;;;13.55;31.42
71105;BME280;58760;48.716;8.962;2023-02-28T13:31:23;97041.78;;;15.23;28.84
71105;BME280;58760;48.716;8.962;2023-02-28T13:36:30;97041.91;;;15.93;26.74
71105;BME280;58760;48.716;8.962;2023-02-28T13:39:03;97032.97;;;17.23;26.34
71105;BME280;58760;48.716;8.962;2023-02-28T13:41:48;97032.28;;;17.95;24.28
71105;BME280;58760;48.716;8.962;2023-02-28T13:44:21;97027.69;;;18.21;24.27
71105;BME280;58760;48.716;8.962;2023-02-28T13:52:02;97029.34;;;18.29;25.04
71105;BME280;58760;48.716;8.962;2023-02-28T14:05:36;97034.56;;;17.17;24.81
71105;BME280;58760;48.716;8.962;2023-02-28T14:08:10;97027.94;;;17.81;25.07
71105;BME280;58760;48.716;8.962;2023-02-28T14:10:44;97033.72;;;18.23;23.77
71105;BME280;58760;48.716;8.962;2023-02-28T14:13:59;97024.59;;;18.31;24.80
71105;BME280;58760;48.716;8.962;2023-02-28T14:16:00;97031.38;;;16.53;25.17
71105;BME280;58760;48.716;8.962;2023-02-28T14:18:38;97033.03;;;15.71;26.43
71105;BME280;58760;48.716;8.962;2023-02-28T14:21:27;97025.41;;;16.51;25.18
71105;BME280;58760;48.716;8.962;2023-02-28T14:26:50;97039.00;;;15.31;26.90
71105;BME280;58760;48.716;8.962;2023-02-28T14:32:22;97026.38;;;17.32;24.99
71105;BME280;58760;48.716;8.962;2023-02-28T14:35:03;97027.25;;;15.67;26.33
71105;BME280;58760;48.716;8.962;2023-02-28T14:37:38;97029.06;;;17.32;24.82
71105;BME280;58760;48.716;8.962;2023-02-28T14:40:15;97033.97;;;16.40;25.55
71105;BME280;58760;48.716;8.962;2023-02-28T14:42:47;97037.63;;;18.21;23.41
71105;BME280;58760;48.716;8.962;2023-02-28T14:45:20;97030.63;;;17.00;25.00
71105;BME280;58760;48.716;8.962;2023-02-28T14:47:47;97027.50;;;18.23;23.61
71105;BME280;58760;48.716;8.962;2023-02-28T14:50:18;97019.56;;;18.67;22.59
71105;BME280;58760;48.716;8.962;2023-02-28T14:52:45;97023.38;;;18.34;23.10
71105;BME280;58760;48.716;8.962;2023-02-28T14:55:15;97017.81;;;18.93;22.06
71105;BME280;58760;48.716;8.962;2023-02-28T14:57:54;97024.00;;;18.16;22.77
71105;BME280;58760;48.716;8.962;2023-02-28T15:00:24;97027.44;;;16.49;24.29
71105;BME280;58760;48.716;8.962;2023-02-28T15:02:51;97035.94;;;15.97;25.20
71105;BME280;58760;48.716;8.962;2023-02-28T15:05:50;97043.25;;;15.25;26.14
71105;BME280;58760;48.716;8.962;2023-02-28T15:08:16;97056.53;;;14.83;26.99